sensor_id;sensor_type;location;lat;lon;timestamp;temperature;humidity
52731;DHT22;38624;53.242;6.974;2022-12-15T00:01:23;-4.20;99.90
52731;DHT22;38624;53.242;6.974;2022-12-15T00:04:07;-4.20;99.90
52731;DHT22;38624;53.242;6.974;2022-12-15T00:06:51;-4.10;99.90
52731;DHT22;38624;53.242;6.974;2022-12-15T00:09:36;-4.10;99.90
52731;DHT22;38624;53.242;6.974;2022-12-15T00:12:20;-4.00;99.90
52731;DHT22;38624;53.242;6.974;2022-12-15T00:15:05;-3.90;99.90
52731;DHT22;38624;53.242;6.974;2022-12-15T00:17:49;-3.50;99.90
52731;DHT22;38624;53.242;6.974;2022-12-15T00:20:33;-1.60;99.90
52731;DHT22;38624;53.242;6.974;2022-12-15T00:23:18;-3.40;99.90
52731;DHT22;38624;53.242;6.974;2022-12-15T00:26:02;-2.40;99.90
52731;DHT22;38624;53.242;6.974;2022-12-15T00:28:46;-2.70;99.90
52731;DHT22;38624;53.242;6.974;2022-12-15T00:31:30;-3.10;99.90
52731;DHT22;38624;53.242;6.974;2022-12-15T00:34:14;-3.20;99.90
52731;DHT22;38624;53.242;6.974;2022-12-15T00:36:59;-3.30;99.90
52731;DHT22;38624;53.242;6.974;2022-12-15T00:39:43;-3.20;99.90
52731;DHT22;38624;53.242;6.974;2022-12-15T00:42:09;-3.20;99.90
52731;DHT22;38624;53.242;6.974;2022-12-15T00:44:34;-3.10;99.90
52731;DHT22;38624;53.242;6.974;2022-12-15T00:47:01;-3.10;99.90
52731;DHT22;38624;53.242;6.974;2022-12-15T00:49:27;-3.20;99.90
52731;DHT22;38624;53.242;6.974;2022-12-15T00:52:13;-3.20;99.90
52731;DHT22;38624;53.242;6.974;2022-12-15T00:54:57;-1.80;99.90
52731;DHT22;38624;53.242;6.974;2022-12-15T00:57:41;-2.60;99.90
52731;DHT22;38624;53.242;6.974;2022-12-15T01:00:26;-2.60;99.90
52731;DHT22;38624;53.242;6.974;2022-12-15T01:03:14;-2.60;99.90
52731;DHT22;38624;53.242;6.974;2022-12-15T01:05:58;-2.60;99.90
52731;DHT22;38624;53.242;6.974;2022-12-15T01:08:43;-2.60;99.90
52731;DHT22;38624;53.242;6.974;2022-12-15T01:11:27;-2.60;99.90
52731;DHT22;38624;53.242;6.974;2022-12-15T01:14:12;-2.60;99.90
52731;DHT22;38624;53.242;6.974;2022-12-15T01:16:56;-2.60;99.90
52731;DHT22;38624;53.242;6.974;2022-12-15T01:19:40;-2.70;99.90
52731;DHT22;38624;53.242;6.974;2022-12-15T01:22:24;-2.80;99.90
52731;DHT22;38624;53.242;6.974;2022-12-15T01:24:50;-2.00;99.90
52731;DHT22;38624;53.242;6.974;2022-12-15T01:27:16;-2.80;99.90
52731;DHT22;38624;53.242;6.974;2022-12-15T01:29:41;-2.80;99.90
52731;DHT22;38624;53.242;6.974;2022-12-15T01:32:07;-2.90;99.90
52731;DHT22;38624;53.242;6.974;2022-12-15T01:34:33;-3.00;99.90
52731;DHT22;38624;53.242;6.974;2022-12-15T01:36:58;-3.00;99.90
52731;DHT22;38624;53.242;6.974;2022-12-15T01:39:24;-3.00;99.90
52731;DHT22;38624;53.242;6.974;2022-12-15T01:42:11;-3.10;99.90
52731;DHT22;38624;53.242;6.974;2022-12-15T01:44:37;-2.30;99.90
52731;DHT22;38624;53.242;6.974;2022-12-15T01:47:02;-3.00;99.90
52731;DHT22;38624;53.242;6.974;2022-12-15T01:49:29;-1.60;99.90
52731;DHT22;38624;53.242;6.974;2022-12-15T01:51:58;-2.90;99.90
52731;DHT22;38624;53.242;6.974;2022-12-15T01:54:26;-2.80;99.90
52731;DHT22;38624;53.242;6.974;2022-12-15T01:56:54;-2.90;99.90
52731;DHT22;38624;53.242;6.974;2022-12-15T01:59:21;-2.80;99.90
52731;DHT22;38624;53.242;6.974;2022-12-15T02:01:49;-2.70;99.90
52731;DHT22;38624;53.242;6.974;2022-12-15T02:04:15;-2.60;99.90
52731;DHT22;38624;53.242;6.974;2022-12-15T02:06:42;-2.60;99.90
52731;DHT22;38624;53.242;6.974;2022-12-15T02:09:07;-2.60;99.90
52731;DHT22;38624;53.242;6.974;2022-12-15T02:14:19;-2.60;99.90
52731;DHT22;38624;53.242;6.974;2022-12-15T02:17:00;-2.70;99.90
52731;DHT22;38624;53.242;6.974;2022-12-15T02:32:25;-3.10;99.90
52731;DHT22;38624;53.242;6.974;2022-12-15T02:35:02;-3.10;99.90
52731;DHT22;38624;53.242;6.974;2022-12-15T02:37:34;-3.20;99.90
52731;DHT22;38624;53.242;6.974;2022-12-15T02:40:00;-3.20;99.90
52731;DHT22;38624;53.242;6.974;2022-12-15T02:42:27;-3.20;99.90
52731;DHT22;38624;53.242;6.974;2022-12-15T02:45:02;-3.20;99.90
52731;DHT22;38624;53.242;6.974;2022-12-15T03:00:16;-3.50;99.90
52731;DHT22;38624;53.242;6.974;2022-12-15T03:02:52;-3.40;99.90
52731;DHT22;38624;53.242;6.974;2022-12-15T03:05:18;-3.40;99.90
52731;DHT22;38624;53.242;6.974;2022-12-15T03:07:44;-3.40;99.90
52731;DHT22;38624;53.242;6.974;2022-12-15T03:10:13;-3.40;99.90
52731;DHT22;38624;53.242;6.974;2022-12-15T03:12:38;-3.50;99.90
52731;DHT22;38624;53.242;6.974;2022-12-15T03:15:04;-3.60;99.90
52731;DHT22;38624;53.242;6.974;2022-12-15T03:17:30;-3.50;99.90
52731;DHT22;38624;53.242;6.974;2022-12-15T03:19:55;-3.50;99.90
52731;DHT22;38624;53.242;6.974;2022-12-15T03:22:21;-3.40;99.90
52731;DHT22;38624;53.242;6.974;2022-12-15T03:24:47;-3.40;99.90
52731;DHT22;38624;53.242;6.974;2022-12-15T03:27:12;-3.20;99.90
52731;DHT22;38624;53.242;6.974;2022-12-15T03:29:38;-2.90;99.90
52731;DHT22;38624;53.242;6.974;2022-12-15T03:32:04;-2.90;99.90
52731;DHT22;38624;53.242;6.974;2022-12-15T03:34:29;-2.90;99.90
52731;DHT22;38624;53.242;6.974;2022-12-15T03:36:55;-2.90;99.90
52731;DHT22;38624;53.242;6.974;2022-12-15T03:39:20;-2.80;99.90
52731;DHT22;38624;53.242;6.974;2022-12-15T03:41:46;-2.80;99.90
52731;DHT22;38624;53.242;6.974;2022-12-15T03:44:12;-1.00;99.90
52731;DHT22;38624;53.242;6.974;2022-12-15T03:46:37;-2.80;99.90
52731;DHT22;38624;53.242;6.974;2022-12-15T03:49:03;-2.70;99.90
52731;DHT22;38624;53.242;6.974;2022-12-15T03:51:28;-2.70;99.90
52731;DHT22;38624;53.242;6.974;2022-12-15T03:53:54;-2.80;99.90
52731;DHT22;38624;53.242;6.974;2022-12-15T03:56:19;-2.50;99.90
52731;DHT22;38624;53.242;6.974;2022-12-15T03:58:45;-2.40;99.90
52731;DHT22;38624;53.242;6.974;2022-12-15T04:01:12;-2.40;99.90
52731;DHT22;38624;53.242;6.974;2022-12-15T04:03:37;-2.40;99.90
52731;DHT22;38624;53.242;6.974;2022-12-15T04:06:03;-2.30;99.90
52731;DHT22;38624;53.242;6.974;2022-12-15T04:08:29;-2.40;99.90
52731;DHT22;38624;53.242;6.974;2022-12-15T04:10:54;-2.50;99.90
52731;DHT22;38624;53.242;6.974;2022-12-15T04:13:20;-2.60;99.90
52731;DHT22;38624;53.242;6.974;2022-12-15T04:15:45;-2.70;99.90
52731;DHT22;38624;53.242;6.974;2022-12-15T04:18:11;-2.80;99.90
52731;DHT22;38624;53.242;6.974;2022-12-15T04:20:37;-2.80;99.90
52731;DHT22;38624;53.242;6.974;2022-12-15T04:23:02;-2.90;99.90
52731;DHT22;38624;53.242;6.974;2022-12-15T04:25:28;-2.90;99.90
52731;DHT22;38624;53.242;6.974;2022-12-15T04:28:12;-3.10;99.90
52731;DHT22;38624;53.242;6.974;2022-12-15T04:31:01;-3.20;99.90
52731;DHT22;38624;53.242;6.974;2022-12-15T04:33:47;-3.30;99.90
52731;DHT22;38624;53.242;6.974;2022-12-15T04:36:33;-3.30;99.90
52731;DHT22;38624;53.242;6.974;2022-12-15T04:39:17;-1.70;99.90
52731;DHT22;38624;53.242;6.974;2022-12-15T04:42:02;-3.50;99.90
52731;DHT22;38624;53.242;6.974;2022-12-15T04:44:46;-3.50;99.90
52731;DHT22;38624;53.242;6.974;2022-12-15T04:47:31;-2.90;99.90
52731;DHT22;38624;53.242;6.974;2022-12-15T04:50:15;-3.30;99.90
52731;DHT22;38624;53.242;6.974;2022-12-15T04:53:33;-3.30;99.90
52731;DHT22;38624;53.242;6.974;2022-12-15T04:56:11;-3.20;99.90
52731;DHT22;38624;53.242;6.974;2022-12-15T04:58:55;-3.00;99.90
52731;DHT22;38624;53.242;6.974;2022-12-15T05:01:39;-3.00;99.90
52731;DHT22;38624;53.242;6.974;2022-12-15T05:04:24;-2.90;99.90
52731;DHT22;38624;53.242;6.974;2022-12-15T05:07:08;-2.90;99.90
52731;DHT22;38624;53.242;6.974;2022-12-15T05:09:52;-2.80;99.90
52731;DHT22;38624;53.242;6.974;2022-12-15T05:12:36;-1.30;99.90
52731;DHT22;38624;53.242;6.974;2022-12-15T05:15:20;-2.90;99.90
52731;DHT22;38624;53.242;6.974;2022-12-15T05:18:04;-3.00;99.90
52731;DHT22;38624;53.242;6.974;2022-12-15T05:20:49;-1.90;99.90
52731;DHT22;38624;53.242;6.974;2022-12-15T05:23:33;-3.00;99.90
52731;DHT22;38624;53.242;6.974;2022-12-15T05:26:17;-3.10;99.90
52731;DHT22;38624;53.242;6.974;2022-12-15T05:29:01;-3.10;99.90
52731;DHT22;38624;53.242;6.974;2022-12-15T05:31:45;-1.40;99.90
52731;DHT22;38624;53.242;6.974;2022-12-15T05:34:11;-2.70;99.90
52731;DHT22;38624;53.242;6.974;2022-12-15T05:36:37;-2.70;99.90
52731;DHT22;38624;53.242;6.974;2022-12-15T05:39:03;-0.90;99.90
52731;DHT22;38624;53.242;6.974;2022-12-15T05:41:28;-2.50;99.90
52731;DHT22;38624;53.242;6.974;2022-12-15T05:43:54;-2.40;99.90
52731;DHT22;38624;53.242;6.974;2022-12-15T05:46:19;-2.10;99.90
52731;DHT22;38624;53.242;6.974;2022-12-15T05:48:45;-2.40;99.90
52731;DHT22;38624;53.242;6.974;2022-12-15T05:51:10;-4.00;99.90
52731;DHT22;38624;53.242;6.974;2022-12-15T05:53:37;-2.60;99.90
52731;DHT22;38624;53.242;6.974;2022-12-15T05:56:03;-2.60;99.90
52731;DHT22;38624;53.242;6.974;2022-12-15T05:58:30;-2.60;99.90
52731;DHT22;38624;53.242;6.974;2022-12-15T06:01:05;-2.60;99.90
52731;DHT22;38624;53.242;6.974;2022-12-15T06:03:32;-2.60;99.90
52731;DHT22;38624;53.242;6.974;2022-12-15T06:05:57;-2.50;99.90
52731;DHT22;38624;53.242;6.974;2022-12-15T06:08:25;-2.60;99.90
52731;DHT22;38624;53.242;6.974;2022-12-15T06:10:54;-2.50;99.90
52731;DHT22;38624;53.242;6.974;2022-12-15T06:13:21;-2.50;99.90
52731;DHT22;38624;53.242;6.974;2022-12-15T06:18:42;-2.50;99.90
52731;DHT22;38624;53.242;6.974;2022-12-15T06:21:12;-1.20;99.90
52731;DHT22;38624;53.242;6.974;2022-12-15T06:23:38;-2.40;99.90
52731;DHT22;38624;53.242;6.974;2022-12-15T06:26:08;-2.40;99.90
52731;DHT22;38624;53.242;6.974;2022-12-15T06:28:34;-2.40;99.90
52731;DHT22;38624;53.242;6.974;2022-12-15T06:31:00;-2.50;99.90
52731;DHT22;38624;53.242;6.974;2022-12-15T06:33:27;-2.50;99.90
52731;DHT22;38624;53.242;6.974;2022-12-15T06:35:53;-2.50;99.90
52731;DHT22;38624;53.242;6.974;2022-12-15T06:38:18;-2.40;99.90
52731;DHT22;38624;53.242;6.974;2022-12-15T06:40:44;-2.30;99.90
52731;DHT22;38624;53.242;6.974;2022-12-15T06:43:10;-2.30;99.90
52731;DHT22;38624;53.242;6.974;2022-12-15T06:45:35;-2.30;99.90
52731;DHT22;38624;53.242;6.974;2022-12-15T06:48:01;-2.30;99.90
52731;DHT22;38624;53.242;6.974;2022-12-15T06:50:26;-2.20;99.90
52731;DHT22;38624;53.242;6.974;2022-12-15T06:52:52;-2.30;99.90
52731;DHT22;38624;53.242;6.974;2022-12-15T06:55:17;-2.20;99.90
52731;DHT22;38624;53.242;6.974;2022-12-15T06:57:45;-2.20;99.90
52731;DHT22;38624;53.242;6.974;2022-12-15T07:00:11;-2.10;99.90
52731;DHT22;38624;53.242;6.974;2022-12-15T07:02:37;-2.10;99.90
52731;DHT22;38624;53.242;6.974;2022-12-15T07:05:03;-2.00;99.90
52731;DHT22;38624;53.242;6.974;2022-12-15T07:07:30;-2.00;99.90
52731;DHT22;38624;53.242;6.974;2022-12-15T07:09:55;-0.40;99.90
52731;DHT22;38624;53.242;6.974;2022-12-15T07:12:21;-2.50;99.90
52731;DHT22;38624;53.242;6.974;2022-12-15T07:14:47;-2.20;99.90
52731;DHT22;38624;53.242;6.974;2022-12-15T07:17:13;-2.20;99.90
52731;DHT22;38624;53.242;6.974;2022-12-15T07:19:39;-2.20;99.90
52731;DHT22;38624;53.242;6.974;2022-12-15T07:22:04;-2.30;99.90
52731;DHT22;38624;53.242;6.974;2022-12-15T07:24:30;-2.20;99.90
52731;DHT22;38624;53.242;6.974;2022-12-15T07:26:55;-2.20;99.90
52731;DHT22;38624;53.242;6.974;2022-12-15T07:29:21;-2.20;99.90
52731;DHT22;38624;53.242;6.974;2022-12-15T07:31:46;-2.10;99.90
52731;DHT22;38624;53.242;6.974;2022-12-15T07:34:12;-2.10;99.90
52731;DHT22;38624;53.242;6.974;2022-12-15T07:36:38;-1.70;99.90
52731;DHT22;38624;53.242;6.974;2022-12-15T07:39:04;-2.10;99.90
52731;DHT22;38624;53.242;6.974;2022-12-15T07:41:29;-2.20;99.90
52731;DHT22;38624;53.242;6.974;2022-12-15T07:43:56;-2.20;99.90
52731;DHT22;38624;53.242;6.974;2022-12-15T07:46:21;-2.10;99.90
52731;DHT22;38624;53.242;6.974;2022-12-15T07:48:48;-1.90;99.90
52731;DHT22;38624;53.242;6.974;2022-12-15T07:51:14;-1.80;99.90
52731;DHT22;38624;53.242;6.974;2022-12-15T07:53:39;-1.30;99.90
52731;DHT22;38624;53.242;6.974;2022-12-15T07:56:05;-1.30;99.90
52731;DHT22;38624;53.242;6.974;2022-12-15T07:58:30;-1.70;99.90
52731;DHT22;38624;53.242;6.974;2022-12-15T08:01:00;-1.70;99.90
52731;DHT22;38624;53.242;6.974;2022-12-15T08:03:26;-1.60;99.90
52731;DHT22;38624;53.242;6.974;2022-12-15T08:05:51;-1.70;99.90
52731;DHT22;38624;53.242;6.974;2022-12-15T08:08:18;-1.60;99.90
52731;DHT22;38624;53.242;6.974;2022-12-15T08:10:44;-1.60;99.90
52731;DHT22;38624;53.242;6.974;2022-12-15T08:13:09;-1.50;99.90
52731;DHT22;38624;53.242;6.974;2022-12-15T08:15:35;-1.30;99.90
52731;DHT22;38624;53.242;6.974;2022-12-15T08:18:02;-1.30;99.90
52731;DHT22;38624;53.242;6.974;2022-12-15T08:20:27;-0.40;99.90
52731;DHT22;38624;53.242;6.974;2022-12-15T08:22:54;-1.10;99.90
52731;DHT22;38624;53.242;6.974;2022-12-15T08:25:20;0.50;99.90
52731;DHT22;38624;53.242;6.974;2022-12-15T08:27:45;-0.60;99.90
52731;DHT22;38624;53.242;6.974;2022-12-15T08:30:14;-1.30;99.90
52731;DHT22;38624;53.242;6.974;2022-12-15T08:32:39;-1.20;99.90
52731;DHT22;38624;53.242;6.974;2022-12-15T08:35:05;-1.20;99.90
52731;DHT22;38624;53.242;6.974;2022-12-15T08:37:33;-1.10;99.90
52731;DHT22;38624;53.242;6.974;2022-12-15T08:39:58;0.90;99.90
52731;DHT22;38624;53.242;6.974;2022-12-15T08:42:24;0.60;99.90
52731;DHT22;38624;53.242;6.974;2022-12-15T08:44:50;0.20;99.90
52731;DHT22;38624;53.242;6.974;2022-12-15T08:47:15;-1.20;99.90
52731;DHT22;38624;53.242;6.974;2022-12-15T08:49:41;0.40;99.90
52731;DHT22;38624;53.242;6.974;2022-12-15T08:52:06;-1.10;99.90
52731;DHT22;38624;53.242;6.974;2022-12-15T08:54:32;-1.20;99.90
52731;DHT22;38624;53.242;6.974;2022-12-15T08:56:58;-1.10;99.90
52731;DHT22;38624;53.242;6.974;2022-12-15T08:59:23;-0.60;99.90
52731;DHT22;38624;53.242;6.974;2022-12-15T09:01:49;-1.10;99.90
52731;DHT22;38624;53.242;6.974;2022-12-15T09:04:15;0.50;99.90
52731;DHT22;38624;53.242;6.974;2022-12-15T09:06:40;-0.90;99.90
52731;DHT22;38624;53.242;6.974;2022-12-15T09:09:07;-0.90;99.90
52731;DHT22;38624;53.242;6.974;2022-12-15T09:11:33;-0.90;99.90
52731;DHT22;38624;53.242;6.974;2022-12-15T09:13:59;1.00;99.90
52731;DHT22;38624;53.242;6.974;2022-12-15T09:16:25;-0.80;99.90
52731;DHT22;38624;53.242;6.974;2022-12-15T09:18:52;-0.50;99.90
52731;DHT22;38624;53.242;6.974;2022-12-15T09:21:18;-0.80;99.90
52731;DHT22;38624;53.242;6.974;2022-12-15T09:23:47;-0.10;99.90
52731;DHT22;38624;53.242;6.974;2022-12-15T09:26:13;-0.80;99.90
52731;DHT22;38624;53.242;6.974;2022-12-15T09:28:39;-0.30;99.90
52731;DHT22;38624;53.242;6.974;2022-12-15T09:33:34;-0.60;99.90
52731;DHT22;38624;53.242;6.974;2022-12-15T09:36:00;0.60;99.90
52731;DHT22;38624;53.242;6.974;2022-12-15T09:38:26;0.80;99.90
52731;DHT22;38624;53.242;6.974;2022-12-15T09:40:51;-0.50;99.90
52731;DHT22;38624;53.242;6.974;2022-12-15T09:43:18;-0.40;99.90
52731;DHT22;38624;53.242;6.974;2022-12-15T09:45:49;-0.50;99.90
52731;DHT22;38624;53.242;6.974;2022-12-15T09:48:20;-0.60;99.90
52731;DHT22;38624;53.242;6.974;2022-12-15T09:50:47;-0.60;99.90
52731;DHT22;38624;53.242;6.974;2022-12-15T09:53:16;-0.40;99.90
52731;DHT22;38624;53.242;6.974;2022-12-15T09:55:44;0.80;99.90
52731;DHT22;38624;53.242;6.974;2022-12-15T10:01:00;-0.10;99.90
52731;DHT22;38624;53.242;6.974;2022-12-15T10:06:12;0.00;99.90
52731;DHT22;38624;53.242;6.974;2022-12-15T10:19:07;0.20;99.90
52731;DHT22;38624;53.242;6.974;2022-12-15T10:21:36;0.20;99.90
52731;DHT22;38624;53.242;6.974;2022-12-15T10:24:16;0.60;99.90
52731;DHT22;38624;53.242;6.974;2022-12-15T10:26:42;0.30;99.90
52731;DHT22;38624;53.242;6.974;2022-12-15T10:29:19;0.50;99.90
52731;DHT22;38624;53.242;6.974;2022-12-15T10:31:54;0.70;99.90
52731;DHT22;38624;53.242;6.974;2022-12-15T10:34:27;0.80;99.90
52731;DHT22;38624;53.242;6.974;2022-12-15T10:36:53;2.60;99.90
52731;DHT22;38624;53.242;6.974;2022-12-15T10:39:19;1.00;99.90
52731;DHT22;38624;53.242;6.974;2022-12-15T10:41:45;1.10;99.90
52731;DHT22;38624;53.242;6.974;2022-12-15T10:44:30;2.90;99.90
52731;DHT22;38624;53.242;6.974;2022-12-15T10:47:04;1.20;99.90
52731;DHT22;38624;53.242;6.974;2022-12-15T10:49:33;1.30;99.90
52731;DHT22;38624;53.242;6.974;2022-12-15T10:51:58;2.50;99.90
52731;DHT22;38624;53.242;6.974;2022-12-15T10:54:33;1.40;99.90
52731;DHT22;38624;53.242;6.974;2022-12-15T10:59:45;1.70;99.90
52731;DHT22;38624;53.242;6.974;2022-12-15T11:04:43;2.00;99.90
52731;DHT22;38624;53.242;6.974;2022-12-15T11:07:18;2.10;99.90
52731;DHT22;38624;53.242;6.974;2022-12-15T11:09:44;2.30;99.90
52731;DHT22;38624;53.242;6.974;2022-12-15T11:12:17;2.40;99.90
52731;DHT22;38624;53.242;6.974;2022-12-15T11:15:10;2.40;99.90
52731;DHT22;38624;53.242;6.974;2022-12-15T11:18:01;2.60;99.90
52731;DHT22;38624;53.242;6.974;2022-12-15T11:20:34;2.70;99.90
52731;DHT22;38624;53.242;6.974;2022-12-15T11:23:03;3.10;99.90
52731;DHT22;38624;53.242;6.974;2022-12-15T11:25:37;3.10;99.90
52731;DHT22;38624;53.242;6.974;2022-12-15T11:28:10;3.50;99.90
52731;DHT22;38624;53.242;6.974;2022-12-15T11:30:40;3.90;99.90
52731;DHT22;38624;53.242;6.974;2022-12-15T11:33:06;3.30;99.90
52731;DHT22;38624;53.242;6.974;2022-12-15T11:35:41;3.40;99.90
52731;DHT22;38624;53.242;6.974;2022-12-15T11:38:20;4.20;99.90
52731;DHT22;38624;53.242;6.974;2022-12-15T11:40:48;3.10;99.90
52731;DHT22;38624;53.242;6.974;2022-12-15T11:43:18;3.20;99.90
52731;DHT22;38624;53.242;6.974;2022-12-15T11:48:31;4.20;99.90
52731;DHT22;38624;53.242;6.974;2022-12-15T11:50:59;4.30;99.90
52731;DHT22;38624;53.242;6.974;2022-12-15T12:03:44;5.00;99.90
52731;DHT22;38624;53.242;6.974;2022-12-15T12:11:44;6.30;99.90
52731;DHT22;38624;53.242;6.974;2022-12-15T12:19:41;6.20;99.90
52731;DHT22;38624;53.242;6.974;2022-12-15T12:22:13;6.10;99.90
52731;DHT22;38624;53.242;6.974;2022-12-15T12:24:50;6.30;99.90
52731;DHT22;38624;53.242;6.974;2022-12-15T12:27:21;6.30;99.90
52731;DHT22;38624;53.242;6.974;2022-12-15T12:29:49;6.50;99.90
52731;DHT22;38624;53.242;6.974;2022-12-15T12:37:43;6.30;99.90
52731;DHT22;38624;53.242;6.974;2022-12-15T12:40:22;6.40;99.90
52731;DHT22;38624;53.242;6.974;2022-12-15T12:42:53;6.60;99.90
52731;DHT22;38624;53.242;6.974;2022-12-15T12:45:19;6.20;99.90
52731;DHT22;38624;53.242;6.974;2022-12-15T12:47:46;6.50;99.90
52731;DHT22;38624;53.242;6.974;2022-12-15T12:50:21;6.40;99.90
52731;DHT22;38624;53.242;6.974;2022-12-15T12:52:57;6.50;99.90
52731;DHT22;38624;53.242;6.974;2022-12-15T12:55:38;7.00;99.90
52731;DHT22;38624;53.242;6.974;2022-12-15T12:58:47;6.60;99.90
52731;DHT22;38624;53.242;6.974;2022-12-15T13:01:02;6.40;99.90
52731;DHT22;38624;53.242;6.974;2022-12-15T13:03:29;6.30;99.90
52731;DHT22;38624;53.242;6.974;2022-12-15T13:05:54;6.40;99.90
52731;DHT22;38624;53.242;6.974;2022-12-15T13:08:28;6.50;99.90
52731;DHT22;38624;53.242;6.974;2022-12-15T13:10:54;6.40;99.90
52731;DHT22;38624;53.242;6.974;2022-12-15T13:16:09;6.50;99.90
52731;DHT22;38624;53.242;6.974;2022-12-15T13:24:04;5.90;99.90
52731;DHT22;38624;53.242;6.974;2022-12-15T13:26:30;5.60;99.90
52731;DHT22;38624;53.242;6.974;2022-12-15T13:28:55;5.30;99.90
52731;DHT22;38624;53.242;6.974;2022-12-15T13:31:25;5.10;99.90
52731;DHT22;38624;53.242;6.974;2022-12-15T13:39:49;4.90;99.90
52731;DHT22;38624;53.242;6.974;2022-12-15T13:46:46;4.90;99.90
52731;DHT22;38624;53.242;6.974;2022-12-15T13:49:13;4.90;99.90
52731;DHT22;38624;53.242;6.974;2022-12-15T13:51:41;5.50;99.90
52731;DHT22;38624;53.242;6.974;2022-12-15T13:56:43;4.70;99.90
52731;DHT22;38624;53.242;6.974;2022-12-15T14:01:48;4.60;99.90
52731;DHT22;38624;53.242;6.974;2022-12-15T14:04:14;5.40;99.90
52731;DHT22;38624;53.242;6.974;2022-12-15T14:06:54;4.30;99.90
52731;DHT22;38624;53.242;6.974;2022-12-15T14:09:21;4.20;99.90
52731;DHT22;38624;53.242;6.974;2022-12-15T14:11:48;4.10;99.90
52731;DHT22;38624;53.242;6.974;2022-12-15T14:14:18;4.10;99.90
52731;DHT22;38624;53.242;6.974;2022-12-15T14:16:44;3.90;99.90
52731;DHT22;38624;53.242;6.974;2022-12-15T14:19:15;3.90;99.90
52731;DHT22;38624;53.242;6.974;2022-12-15T14:21:55;3.70;99.90
52731;DHT22;38624;53.242;6.974;2022-12-15T14:24:28;3.60;99.90
52731;DHT22;38624;53.242;6.974;2022-12-15T14:26:54;3.60;99.90
52731;DHT22;38624;53.242;6.974;2022-12-15T14:29:20;4.80;99.90
52731;DHT22;38624;53.242;6.974;2022-12-15T14:31:56;3.40;99.90
52731;DHT22;38624;53.242;6.974;2022-12-15T14:36:47;3.20;99.90
52731;DHT22;38624;53.242;6.974;2022-12-15T14:39:29;3.10;99.90
52731;DHT22;38624;53.242;6.974;2022-12-15T14:41:56;3.00;99.90
52731;DHT22;38624;53.242;6.974;2022-12-15T14:44:37;3.10;99.90
52731;DHT22;38624;53.242;6.974;2022-12-15T14:47:05;3.10;99.90
52731;DHT22;38624;53.242;6.974;2022-12-15T14:49:32;3.20;99.90
52731;DHT22;38624;53.242;6.974;2022-12-15T14:52:01;4.80;99.90
52731;DHT22;38624;53.242;6.974;2022-12-15T14:54:32;3.20;99.90
52731;DHT22;38624;53.242;6.974;2022-12-15T14:57:13;3.10;99.90
52731;DHT22;38624;53.242;6.974;2022-12-15T14:59:40;3.00;99.90
52731;DHT22;38624;53.242;6.974;2022-12-15T15:04:37;2.80;99.90
52731;DHT22;38624;53.242;6.974;2022-12-15T15:07:04;4.80;99.90
52731;DHT22;38624;53.242;6.974;2022-12-15T15:09:31;2.60;99.90
52731;DHT22;38624;53.242;6.974;2022-12-15T15:12:01;2.50;99.90
52731;DHT22;38624;53.242;6.974;2022-12-15T15:14:29;2.50;99.90
52731;DHT22;38624;53.242;6.974;2022-12-15T15:19:24;2.30;99.90
52731;DHT22;38624;53.242;6.974;2022-12-15T15:21:50;4.10;99.90
52731;DHT22;38624;53.242;6.974;2022-12-15T15:26:41;2.20;99.90
52731;DHT22;38624;53.242;6.974;2022-12-15T15:31:52;2.00;99.90
52731;DHT22;38624;53.242;6.974;2022-12-15T15:34:18;1.90;99.90
52731;DHT22;38624;53.242;6.974;2022-12-15T15:36:43;3.40;99.90
52731;DHT22;38624;53.242;6.974;2022-12-15T15:39:11;1.90;99.90
52731;DHT22;38624;53.242;6.974;2022-12-15T15:41:36;1.90;99.90
52731;DHT22;38624;53.242;6.974;2022-12-15T15:44:04;2.30;99.90
52731;DHT22;38624;53.242;6.974;2022-12-15T15:46:31;1.80;99.90
52731;DHT22;38624;53.242;6.974;2022-12-15T15:49:00;2.70;99.90
52731;DHT22;38624;53.242;6.974;2022-12-15T15:51:27;1.70;99.90
52731;DHT22;38624;53.242;6.974;2022-12-15T15:53:54;1.60;99.90
52731;DHT22;38624;53.242;6.974;2022-12-15T15:56:22;3.00;99.90
52731;DHT22;38624;53.242;6.974;2022-12-15T15:58:47;1.30;99.90
52731;DHT22;38624;53.242;6.974;2022-12-15T16:01:13;2.40;99.90
52731;DHT22;38624;53.242;6.974;2022-12-15T16:03:39;1.30;99.90
52731;DHT22;38624;53.242;6.974;2022-12-15T16:06:04;1.30;99.90
52731;DHT22;38624;53.242;6.974;2022-12-15T16:08:32;1.20;99.90
52731;DHT22;38624;53.242;6.974;2022-12-15T16:10:59;1.10;99.90
52731;DHT22;38624;53.242;6.974;2022-12-15T16:13:25;1.10;99.90
52731;DHT22;38624;53.242;6.974;2022-12-15T16:15:51;1.00;99.90
52731;DHT22;38624;53.242;6.974;2022-12-15T16:18:16;1.00;99.90
52731;DHT22;38624;53.242;6.974;2022-12-15T16:20:42;0.90;99.90
52731;DHT22;38624;53.242;6.974;2022-12-15T16:23:13;1.00;99.90
52731;DHT22;38624;53.242;6.974;2022-12-15T16:25:40;1.00;99.90
52731;DHT22;38624;53.242;6.974;2022-12-15T16:28:20;0.90;99.90
52731;DHT22;38624;53.242;6.974;2022-12-15T16:30:46;0.90;99.90
52731;DHT22;38624;53.242;6.974;2022-12-15T16:33:12;0.80;99.90
52731;DHT22;38624;53.242;6.974;2022-12-15T16:35:38;0.70;99.90
52731;DHT22;38624;53.242;6.974;2022-12-15T16:38:05;0.60;99.90
52731;DHT22;38624;53.242;6.974;2022-12-15T16:40:30;0.60;99.90
52731;DHT22;38624;53.242;6.974;2022-12-15T16:43:00;0.50;99.90
52731;DHT22;38624;53.242;6.974;2022-12-15T16:45:27;0.70;99.90
52731;DHT22;38624;53.242;6.974;2022-12-15T16:47:53;1.00;99.90
52731;DHT22;38624;53.242;6.974;2022-12-15T16:50:35;0.70;99.90
52731;DHT22;38624;53.242;6.974;2022-12-15T16:53:02;0.70;99.90
52731;DHT22;38624;53.242;6.974;2022-12-15T16:55:29;0.60;99.90
52731;DHT22;38624;53.242;6.974;2022-12-15T16:57:58;0.60;99.90
52731;DHT22;38624;53.242;6.974;2022-12-15T17:00:26;0.60;99.90
52731;DHT22;38624;53.242;6.974;2022-12-15T17:02:53;1.00;99.90
52731;DHT22;38624;53.242;6.974;2022-12-15T17:05:18;0.70;99.90
52731;DHT22;38624;53.242;6.974;2022-12-15T17:07:45;0.80;99.90
52731;DHT22;38624;53.242;6.974;2022-12-15T17:10:15;0.80;99.90
52731;DHT22;38624;53.242;6.974;2022-12-15T17:12:41;0.90;99.90
52731;DHT22;38624;53.242;6.974;2022-12-15T17:15:14;1.00;99.90
52731;DHT22;38624;53.242;6.974;2022-12-15T17:17:40;0.90;99.90
52731;DHT22;38624;53.242;6.974;2022-12-15T17:20:05;0.90;99.90
52731;DHT22;38624;53.242;6.974;2022-12-15T17:22:31;1.10;99.90
52731;DHT22;38624;53.242;6.974;2022-12-15T17:24:57;1.70;99.90
52731;DHT22;38624;53.242;6.974;2022-12-15T17:27:26;1.20;99.90
52731;DHT22;38624;53.242;6.974;2022-12-15T17:29:53;1.20;99.90
52731;DHT22;38624;53.242;6.974;2022-12-15T17:32:19;1.10;99.90
52731;DHT22;38624;53.242;6.974;2022-12-15T17:34:45;2.50;99.90
52731;DHT22;38624;53.242;6.974;2022-12-15T17:37:10;1.70;99.90
52731;DHT22;38624;53.242;6.974;2022-12-15T17:39:37;1.20;99.90
52731;DHT22;38624;53.242;6.974;2022-12-15T17:42:04;2.00;99.90
52731;DHT22;38624;53.242;6.974;2022-12-15T17:44:35;1.00;99.90
52731;DHT22;38624;53.242;6.974;2022-12-15T17:47:01;1.00;99.90
52731;DHT22;38624;53.242;6.974;2022-12-15T17:49:26;2.70;99.90
52731;DHT22;38624;53.242;6.974;2022-12-15T17:51:52;1.50;99.90
52731;DHT22;38624;53.242;6.974;2022-12-15T17:54:17;2.70;99.90
52731;DHT22;38624;53.242;6.974;2022-12-15T17:56:44;0.90;99.90